createdAt,value
2022-09-15T00:00:09.345Z,99209.50
2022-09-15T00:02:36.307Z,99198.72
2022-09-15T00:05:04.326Z,99188.47
2022-09-15T00:07:31.465Z,99186.41
2022-09-15T00:09:58.053Z,99171.84
2022-09-15T00:12:25.057Z,99164.94
2022-09-15T00:14:51.661Z,99159.25
2022-09-15T00:17:18.368Z,99145.06
2022-09-15T00:19:45.008Z,99148.97
2022-09-15T00:22:11.797Z,99167.34
2022-09-15T00:24:38.761Z,99166.28
2022-09-15T00:27:05.321Z,99154.53
2022-09-15T00:29:31.904Z,99111.34
2022-09-15T00:31:58.572Z,99110.38
2022-09-15T00:34:25.153Z,99135.19
2022-09-15T00:36:51.751Z,99144.78
2022-09-15T00:39:18.343Z,99175.38
2022-09-15T00:41:44.930Z,99184.84
2022-09-15T00:44:14.259Z,99173.50
2022-09-15T00:46:45.160Z,99193.44
2022-09-15T00:49:24.566Z,99190.91
2022-09-15T00:51:56.461Z,99203.22
2022-09-15T00:54:31.775Z,99221.56
2022-09-15T00:57:02.883Z,99240.72
2022-09-15T00:59:32.901Z,99242.88
2022-09-15T01:02:04.354Z,99244.69
2022-09-15T01:04:31.130Z,99240.47
2022-09-15T01:07:02.920Z,99240.19
2022-09-15T01:09:41.647Z,99229.81
2022-09-15T01:12:08.200Z,99232.56
2022-09-15T01:14:34.832Z,99233.91
2022-09-15T01:17:07.288Z,99239.19
2022-09-15T01:19:39.924Z,99246.06
2022-09-15T01:22:40.873Z,99244.88
2022-09-15T01:25:19.102Z,99245.28
2022-09-15T01:27:59.327Z,99221.84
2022-09-15T01:30:26.398Z,99225.34
2022-09-15T01:33:07.918Z,99217.72
2022-09-15T01:35:59.816Z,99224.34
2022-09-15T01:38:41.626Z,99217.50
2022-09-15T01:41:25.470Z,99228.66
2022-09-15T01:44:12.402Z,99220.06
2022-09-15T01:46:52.421Z,99210.28
2022-09-15T01:49:22.609Z,99215.34
2022-09-15T01:51:50.761Z,99217.28
2022-09-15T01:54:22.321Z,99221.50
2022-09-15T01:56:48.891Z,99228.34
2022-09-15T01:59:15.806Z,99220.22
2022-09-15T02:01:51.024Z,99230.50
2022-09-15T02:04:25.501Z,99215.06
2022-09-15T02:07:32.000Z,99225.03
2022-09-15T02:10:04.358Z,99217.41
2022-09-15T02:12:39.589Z,99229.81
2022-09-15T02:15:12.071Z,99222.00
2022-09-15T02:17:45.688Z,99215.44
2022-09-15T02:20:25.676Z,99210.47
2022-09-15T02:22:57.284Z,99213.41
2022-09-15T02:25:34.544Z,99210.69
2022-09-15T02:28:08.335Z,99218.31
2022-09-15T02:30:41.215Z,99218.00
2022-09-15T02:33:14.162Z,99222.19
2022-09-15T02:35:41.904Z,99228.66
2022-09-15T02:38:10.593Z,99231.69
2022-09-15T02:40:41.332Z,99233.56
2022-09-15T02:43:12.355Z,99221.31
2022-09-15T02:45:38.958Z,99226.09
2022-09-15T02:48:05.903Z,99235.31
2022-09-15T02:50:32.502Z,99239.50
2022-09-15T02:52:59.077Z,99239.41
2022-09-15T02:55:29.101Z,99235.09
2022-09-15T02:57:58.820Z,99235.09
2022-09-15T03:00:27.115Z,99240.59
2022-09-15T03:02:54.836Z,99242.72
2022-09-15T03:05:27.620Z,99241.16
2022-09-15T03:07:55.035Z,99253.28
2022-09-15T03:10:23.939Z,99239.41
2022-09-15T03:12:52.858Z,99242.62
2022-09-15T03:15:22.366Z,99250.53
2022-09-15T03:17:49.501Z,99240.34
2022-09-15T03:20:22.215Z,99238.78
2022-09-15T03:22:49.643Z,99240.81
2022-09-15T03:25:17.777Z,99243.66
2022-09-15T03:27:44.666Z,99255.50
2022-09-15T03:30:12.491Z,99259.94
2022-09-15T03:32:39.140Z,99244.63
2022-09-15T03:35:06.932Z,99243.03
2022-09-15T03:37:33.906Z,99242.94
2022-09-15T03:40:00.616Z,99238.75
2022-09-15T03:42:27.228Z,99241.31
2022-09-15T03:44:53.799Z,99247.00
2022-09-15T03:47:20.355Z,99244.22
2022-09-15T03:49:46.887Z,99240.31
2022-09-15T03:52:13.859Z,99228.22
2022-09-15T03:54:40.475Z,99232.47
2022-09-15T03:57:07.089Z,99234.44
2022-09-15T03:59:33.697Z,99238.25
2022-09-15T04:02:00.434Z,99237.09
2022-09-15T04:04:27.409Z,99238.06
2022-09-15T04:06:53.949Z,99243.16
2022-09-15T04:09:21.517Z,99241.25
2022-09-15T04:11:48.331Z,99254.75
2022-09-15T04:14:14.931Z,99255.72
2022-09-15T04:16:41.569Z,99259.94
2022-09-15T04:19:08.373Z,99254.53
2022-09-15T04:21:35.091Z,99267.88
2022-09-15T04:24:01.940Z,99264.84
2022-09-15T04:26:33.072Z,99265.06
2022-09-15T04:29:04.283Z,99265.19
2022-09-15T04:31:33.089Z,99254.87
2022-09-15T04:33:59.951Z,99266.38
2022-09-15T04:36:28.415Z,99265.06
2022-09-15T04:38:56.024Z,99266.56
2022-09-15T04:41:23.074Z,99270.00
2022-09-15T04:43:49.716Z,99273.03
2022-09-15T04:46:16.947Z,99284.09
2022-09-15T04:48:45.491Z,99293.28
2022-09-15T04:51:15.383Z,99308.56
2022-09-15T04:53:42.194Z,99305.28
2022-09-15T04:56:20.875Z,99296.22
2022-09-15T04:59:03.541Z,99293.63
2022-09-15T05:01:34.175Z,99293.41
2022-09-15T05:04:01.878Z,99274.34
2022-09-15T05:06:28.443Z,99270.22
2022-09-15T05:08:57.154Z,99267.56
2022-09-15T05:11:24.935Z,99277.03
2022-09-15T05:13:52.069Z,99279.09
2022-09-15T05:16:21.618Z,99287.84
2022-09-15T05:18:50.425Z,99294.03
2022-09-15T05:21:19.215Z,99302.31
2022-09-15T05:23:46.452Z,99305.97
2022-09-15T05:26:15.431Z,99309.94
2022-09-15T05:28:42.300Z,99329.25
2022-09-15T05:31:17.931Z,99341.31
2022-09-15T05:33:45.527Z,99332.53
2022-09-15T05:36:14.327Z,99339.28
2022-09-15T05:38:41.635Z,99330.91
2022-09-15T05:41:11.441Z,99344.97
2022-09-15T05:43:39.493Z,99347.13
2022-09-15T05:46:07.620Z,99341.84
2022-09-15T05:48:34.737Z,99342.62
2022-09-15T05:51:01.625Z,99341.16
2022-09-15T05:53:28.913Z,99343.41
2022-09-15T05:56:00.956Z,99338.03
2022-09-15T05:58:27.745Z,99335.03
2022-09-15T06:00:54.930Z,99325.94
2022-09-15T06:03:26.411Z,99322.25
2022-09-15T06:06:03.718Z,99316.34
2022-09-15T06:08:32.792Z,99315.34
2022-09-15T06:11:08.015Z,99315.03
2022-09-15T06:13:35.126Z,99321.34
2022-09-15T06:16:07.094Z,99325.78
2022-09-15T06:18:37.159Z,99330.25
2022-09-15T06:21:16.007Z,99345.22
2022-09-15T06:23:46.040Z,99339.81
2022-09-15T06:26:20.203Z,99347.88
2022-09-15T06:28:52.667Z,99339.13
2022-09-15T06:31:19.896Z,99350.31
2022-09-15T06:33:51.166Z,99343.78
2022-09-15T06:36:20.118Z,99352.94
2022-09-15T06:38:47.533Z,99355.81
2022-09-15T06:41:15.845Z,99361.03
2022-09-15T06:43:42.891Z,99366.75
2022-09-15T06:46:14.921Z,99365.84
2022-09-15T06:48:44.302Z,99365.06
2022-09-15T06:51:15.524Z,99367.41
2022-09-15T06:53:42.116Z,99367.97
2022-09-15T06:56:12.856Z,99364.66
2022-09-15T06:58:40.902Z,99357.09
2022-09-15T07:01:18.661Z,99358.38
2022-09-15T07:03:45.374Z,99348.62
2022-09-15T07:06:12.239Z,99341.00
2022-09-15T07:08:40.113Z,99341.78
2022-09-15T07:11:08.620Z,99348.28
2022-09-15T07:13:36.011Z,99343.50
2022-09-15T07:16:04.708Z,99358.59
2022-09-15T07:18:32.503Z,99356.09
2022-09-15T07:21:05.034Z,99353.16
2022-09-15T07:23:32.598Z,99365.69
2022-09-15T07:26:11.673Z,99369.75
2022-09-15T07:28:39.589Z,99383.91
2022-09-15T07:31:07.203Z,99383.16
2022-09-15T07:33:35.283Z,99376.44
2022-09-15T07:36:03.059Z,99385.81
2022-09-15T07:38:29.618Z,99381.72
2022-09-15T07:41:03.119Z,99385.69
2022-09-15T07:43:29.721Z,99395.00
2022-09-15T07:46:01.009Z,99394.75
2022-09-15T07:48:27.998Z,99391.09
2022-09-15T07:50:54.829Z,99404.63
2022-09-15T07:53:21.401Z,99402.31
2022-09-15T07:55:54.981Z,99388.28
2022-09-15T07:58:23.522Z,99397.72
2022-09-15T08:00:50.162Z,99395.22
2022-09-15T08:03:17.034Z,99402.38
2022-09-15T08:05:45.847Z,99404.81
2022-09-15T08:08:12.706Z,99403.47
2022-09-15T08:10:41.252Z,99400.53
2022-09-15T08:13:08.480Z,99408.94
2022-09-15T08:15:38.830Z,99394.69
2022-09-15T08:18:06.290Z,99400.66
2022-09-15T08:20:34.692Z,99396.12
2022-09-15T08:23:01.978Z,99395.38
2022-09-15T08:25:28.788Z,99401.81
2022-09-15T08:27:56.393Z,99400.03
2022-09-15T08:30:23.662Z,99397.69
2022-09-15T08:32:50.808Z,99407.59
2022-09-15T08:35:17.919Z,99410.34
2022-09-15T08:37:44.501Z,99413.97
2022-09-15T08:40:22.312Z,99409.72
2022-09-15T08:42:53.927Z,99400.50
2022-09-15T08:45:28.623Z,99398.13
2022-09-15T08:48:00.267Z,99392.59
2022-09-15T08:50:35.698Z,99385.94
2022-09-15T08:53:06.917Z,99386.75
2022-09-15T08:55:36.716Z,99375.97
2022-09-15T08:58:04.589Z,99381.94
2022-09-15T09:00:32.133Z,99375.53
2022-09-15T09:03:07.661Z,99370.72
2022-09-15T09:05:34.424Z,99358.31
2022-09-15T09:08:06.815Z,99353.66
2022-09-15T09:10:48.180Z,99354.69
2022-09-15T09:13:48.851Z,99363.69
2022-09-15T09:16:30.610Z,99350.91
2022-09-15T09:19:28.937Z,99355.09
2022-09-15T09:22:06.795Z,99346.56
2022-09-15T09:24:56.779Z,99340.00
2022-09-15T09:27:27.219Z,99329.72
2022-09-15T09:30:19.770Z,99334.62
2022-09-15T09:33:25.885Z,99334.56
2022-09-15T09:35:53.304Z,99334.12
2022-09-15T09:38:22.758Z,99338.19
2022-09-15T09:40:50.256Z,99345.69
2022-09-15T09:43:17.038Z,99332.31
2022-09-15T09:45:43.997Z,99342.16
2022-09-15T09:48:30.004Z,99341.78
2022-09-15T09:50:56.985Z,99340.63
2022-09-15T09:53:32.996Z,99345.63
2022-09-15T09:56:11.834Z,99327.56
2022-09-15T09:58:38.710Z,99325.13
2022-09-15T10:01:17.621Z,99323.16
2022-09-15T10:03:45.324Z,99316.47
2022-09-15T10:06:16.862Z,99316.81
2022-09-15T10:08:57.498Z,99310.72
2022-09-15T10:11:52.842Z,99294.59
2022-09-15T10:14:19.861Z,99288.97
2022-09-15T10:17:00.507Z,99289.88
2022-09-15T10:19:32.674Z,99286.13
2022-09-15T10:22:01.335Z,99277.41
2022-09-15T10:24:27.806Z,99276.56
2022-09-15T10:27:34.027Z,99264.69
2022-09-15T10:30:12.722Z,99253.06
2022-09-15T10:32:40.276Z,99256.22
2022-09-15T10:35:11.525Z,99247.00
2022-09-15T10:38:00.227Z,99251.09
2022-09-15T10:40:34.526Z,99248.91
2022-09-15T10:43:10.876Z,99247.03
2022-09-15T10:45:47.010Z,99256.22
2022-09-15T10:48:25.816Z,99256.19
2022-09-15T10:51:07.574Z,99258.81
2022-09-15T10:53:49.446Z,99261.69
2022-09-15T10:56:22.201Z,99255.19
2022-09-15T10:59:07.412Z,99272.94
2022-09-15T11:02:23.390Z,99254.87
2022-09-15T11:04:55.781Z,99259.44
2022-09-15T11:07:44.803Z,99257.75
2022-09-15T11:10:20.539Z,99265.22
2022-09-15T11:12:53.285Z,99263.03
2022-09-15T11:15:38.085Z,99253.47
2022-09-15T11:18:19.746Z,99251.91
2022-09-15T11:21:05.148Z,99246.94
2022-09-15T11:23:40.541Z,99243.91
2022-09-15T11:26:17.511Z,99241.84
2022-09-15T11:28:51.980Z,99237.28
2022-09-15T11:31:34.310Z,99243.91
2022-09-15T11:34:11.306Z,99240.50
2022-09-15T11:36:45.033Z,99238.91
2022-09-15T11:39:24.429Z,99236.41
2022-09-15T11:42:01.111Z,99229.72
2022-09-15T11:44:34.106Z,99216.22
2022-09-15T11:47:22.113Z,99206.00
2022-09-15T11:50:09.021Z,99205.19
2022-09-15T11:52:40.810Z,99205.66
2022-09-15T11:55:15.765Z,99182.91
2022-09-15T11:57:51.515Z,99181.38
2022-09-15T12:00:19.424Z,99182.31
2022-09-15T12:03:17.146Z,99183.75
2022-09-15T12:05:50.690Z,99184.44
2022-09-15T12:08:27.693Z,99177.37
2022-09-15T12:10:58.996Z,99187.25
2022-09-15T12:13:26.997Z,99185.72
2022-09-15T12:15:54.520Z,99175.88
2022-09-15T12:18:39.287Z,99172.25
2022-09-15T12:21:23.744Z,99165.19
2022-09-15T12:23:56.160Z,99165.78
2022-09-15T12:26:26.138Z,99160.63
2022-09-15T12:28:57.307Z,99154.59
2022-09-15T12:31:23.935Z,99156.00
2022-09-15T12:33:54.091Z,99160.41
2022-09-15T12:36:34.761Z,99146.84
2022-09-15T12:39:04.633Z,99163.81
2022-09-15T12:41:32.141Z,99144.16
2022-09-15T12:44:05.324Z,99155.34
2022-09-15T12:46:33.127Z,99157.38
2022-09-15T12:49:03.474Z,99151.41
2022-09-15T12:51:30.683Z,99148.19
2022-09-15T12:54:04.774Z,99147.25
2022-09-15T12:56:33.779Z,99125.16
2022-09-15T12:59:06.820Z,99119.72
2022-09-15T13:01:53.630Z,99112.38
2022-09-15T13:04:25.388Z,99124.34
2022-09-15T13:07:20.323Z,99132.13
2022-09-15T13:10:05.552Z,99130.03
2022-09-15T13:12:39.761Z,99117.13
2022-09-15T13:15:13.278Z,99139.53
2022-09-15T13:17:45.251Z,99140.75
2022-09-15T13:20:19.970Z,99180.91
2022-09-15T13:22:51.605Z,99170.81
2022-09-15T13:25:26.216Z,99163.09
2022-09-15T13:28:01.606Z,99166.00
2022-09-15T13:30:40.334Z,99161.81
2022-09-15T13:38:04.062Z,99150.09
2022-09-15T13:39:27.001Z,99158.31
2022-09-15T13:42:17.859Z,99159.34
2022-09-15T13:44:44.352Z,99154.25
2022-09-15T13:47:29.447Z,99151.31
2022-09-15T13:50:21.521Z,99151.31
2022-09-15T13:52:53.378Z,99152.22
2022-09-15T13:55:25.346Z,99147.97
2022-09-15T14:01:00.617Z,99146.00
2022-09-15T14:03:37.354Z,99154.75
2022-09-15T14:06:22.946Z,99153.72
2022-09-15T14:08:54.369Z,99136.09
2022-09-15T14:11:28.271Z,99133.63
2022-09-15T14:13:56.782Z,99131.63
2022-09-15T14:16:34.627Z,99130.34
2022-09-15T14:19:04.139Z,99127.09
2022-09-15T14:21:33.598Z,99126.94
2022-09-15T14:24:06.007Z,99125.50
2022-09-15T14:26:35.795Z,99122.56
2022-09-15T14:29:05.599Z,99143.88
2022-09-15T14:31:39.385Z,99140.34
2022-09-15T14:34:23.505Z,99134.41
2022-09-15T14:37:12.728Z,99145.22
2022-09-15T14:39:40.392Z,99155.44
2022-09-15T14:42:22.636Z,99157.09
2022-09-15T14:47:43.314Z,99166.12
2022-09-15T14:50:20.098Z,99153.22
2022-09-15T14:52:51.931Z,99153.34
2022-09-15T14:55:28.222Z,99148.25
2022-09-15T14:58:03.086Z,99154.19
2022-09-15T15:00:38.700Z,99146.87
2022-09-15T15:03:17.579Z,99142.03
2022-09-15T15:06:02.170Z,99151.88
2022-09-15T15:08:31.505Z,99176.13
2022-09-15T15:10:59.384Z,99201.59
2022-09-15T15:13:26.805Z,99202.88
2022-09-15T15:15:53.822Z,99207.72
2022-09-15T15:18:38.529Z,99228.44
2022-09-15T15:21:07.014Z,99246.03
2022-09-15T15:23:33.679Z,99256.56
2022-09-15T15:26:35.969Z,99245.09
2022-09-15T15:29:02.670Z,99226.13
2022-09-15T15:31:29.972Z,99236.03
2022-09-15T15:34:05.461Z,99228.66
2022-09-15T15:36:34.626Z,99221.38
2022-09-15T15:39:06.726Z,99191.28
2022-09-15T15:41:42.770Z,99207.81
2022-09-15T15:44:15.596Z,99211.69
2022-09-15T15:46:59.911Z,99202.22
2022-09-15T15:49:29.175Z,99197.66
2022-09-15T15:51:58.240Z,99213.63
2022-09-15T15:54:25.470Z,99210.63
2022-09-15T15:56:53.168Z,99208.41
2022-09-15T15:59:19.983Z,99188.22
2022-09-15T16:01:52.866Z,99180.38
2022-09-15T16:04:19.826Z,99166.06
2022-09-15T16:06:46.609Z,99169.84
2022-09-15T16:09:18.791Z,99154.75
2022-09-15T16:11:45.639Z,99146.22
2022-09-15T16:14:13.674Z,99140.69
2022-09-15T16:16:40.895Z,99143.22
2022-09-15T16:19:08.466Z,99147.44
2022-09-15T16:21:39.112Z,99137.06
2022-09-15T16:24:10.370Z,99133.97
2022-09-15T16:26:37.813Z,99126.63
2022-09-15T16:29:04.350Z,99134.47
2022-09-15T16:31:33.370Z,99126.28
2022-09-15T16:34:00.574Z,99120.38
2022-09-15T16:36:27.412Z,99124.84
2022-09-15T16:38:54.140Z,99133.16
2022-09-15T16:41:28.484Z,99129.31
2022-09-15T16:43:57.843Z,99132.37
2022-09-15T16:46:25.189Z,99114.22
2022-09-15T16:48:51.866Z,99119.69
2022-09-15T16:51:28.413Z,99125.66
2022-09-15T16:53:57.386Z,99121.38
2022-09-15T16:56:23.943Z,99122.88
2022-09-15T16:58:54.775Z,99126.22
2022-09-15T17:01:25.229Z,99132.75
2022-09-15T17:03:51.821Z,99131.16
2022-09-15T17:06:18.746Z,99149.75
2022-09-15T17:08:45.838Z,99168.56
2022-09-15T17:11:16.654Z,99165.94
2022-09-15T17:13:44.383Z,99160.28
2022-09-15T17:16:13.210Z,99154.75
2022-09-15T17:18:39.839Z,99150.25
2022-09-15T17:21:07.384Z,99147.13
2022-09-15T17:23:43.192Z,99143.50
2022-09-15T17:26:13.628Z,99150.59
2022-09-15T17:28:41.104Z,99150.66
2022-09-15T17:31:20.853Z,99162.63
2022-09-15T17:33:48.631Z,99156.66
2022-09-15T17:36:15.889Z,99150.28
2022-09-15T17:38:42.985Z,99153.41
2022-09-15T17:41:16.979Z,99150.75
2022-09-15T17:43:44.006Z,99149.72
2022-09-15T17:46:10.665Z,99150.00
2022-09-15T17:48:38.924Z,99149.53
2022-09-15T17:51:07.147Z,99140.34
2022-09-15T17:53:34.207Z,99137.56
2022-09-15T17:56:00.871Z,99132.78
2022-09-15T17:58:29.888Z,99129.09
2022-09-15T18:00:59.847Z,99131.22
2022-09-15T18:03:34.028Z,99141.25
2022-09-15T18:06:04.261Z,99143.09
2022-09-15T18:08:32.839Z,99139.19
2022-09-15T18:11:00.294Z,99135.03
2022-09-15T18:13:28.181Z,99135.31
2022-09-15T18:15:55.088Z,99139.22
2022-09-15T18:18:27.511Z,99148.44
2022-09-15T18:20:57.735Z,99157.13
2022-09-15T18:23:26.788Z,99152.12
2022-09-15T18:25:53.323Z,99161.31
2022-09-15T18:28:20.456Z,99164.50
2022-09-15T18:30:48.868Z,99168.13
2022-09-15T18:33:15.417Z,99167.28
2022-09-15T18:35:42.917Z,99180.97
2022-09-15T18:38:10.043Z,99181.75
2022-09-15T18:40:37.035Z,99183.84
2022-09-15T18:43:03.871Z,99187.78
2022-09-15T18:45:30.405Z,99190.19
2022-09-15T18:47:57.144Z,99173.34
2022-09-15T18:50:24.365Z,99160.50
2022-09-15T18:52:51.061Z,99153.59
2022-09-15T18:55:20.288Z,99157.56
2022-09-15T18:57:48.214Z,99152.31
2022-09-15T19:00:17.784Z,99159.66
2022-09-15T19:02:44.503Z,99173.38
2022-09-15T19:05:12.222Z,99185.00
2022-09-15T19:07:39.126Z,99192.87
2022-09-15T19:10:07.290Z,99186.66
2022-09-15T19:12:36.262Z,99180.38
2022-09-15T19:15:04.625Z,99182.69
2022-09-15T19:17:31.264Z,99194.50
2022-09-15T19:19:58.184Z,99191.84
2022-09-15T19:22:24.801Z,99189.81
2022-09-15T19:24:51.401Z,99197.09
2022-09-15T19:27:18.023Z,99192.34
2022-09-15T19:29:44.668Z,99199.66
2022-09-15T19:32:13.301Z,99183.41
2022-09-15T19:34:42.134Z,99191.28
2022-09-15T19:37:14.140Z,99197.78
2022-09-15T19:39:43.693Z,99193.09
2022-09-15T19:42:11.798Z,99196.75
2022-09-15T19:44:38.535Z,99202.50
2022-09-15T19:47:05.102Z,99200.44
2022-09-15T19:49:31.671Z,99202.84
2022-09-15T19:51:58.225Z,99206.00
2022-09-15T19:54:26.893Z,99206.56
2022-09-15T19:56:53.607Z,99212.09
2022-09-15T19:59:20.721Z,99204.97
2022-09-15T20:01:48.134Z,99211.53
2022-09-15T20:04:15.519Z,99218.91
2022-09-15T20:06:42.448Z,99224.44
2022-09-15T20:09:10.217Z,99230.75
2022-09-15T20:11:36.960Z,99236.84
2022-09-15T20:14:04.359Z,99242.81
2022-09-15T20:16:30.995Z,99253.81
2022-09-15T20:18:57.743Z,99257.72
2022-09-15T20:21:50.387Z,99255.31
2022-09-15T20:24:18.808Z,99256.03
2022-09-15T20:26:45.353Z,99244.25
2022-09-15T20:29:12.005Z,99241.06
2022-09-15T20:31:38.578Z,99242.12
2022-09-15T20:34:05.281Z,99246.84
2022-09-15T20:36:36.037Z,99249.53
2022-09-15T20:39:04.908Z,99251.34
2022-09-15T20:41:34.402Z,99248.47
2022-09-15T20:44:01.153Z,99257.94
2022-09-15T20:46:29.399Z,99252.69
2022-09-15T20:48:55.993Z,99268.22
2022-09-15T20:51:29.491Z,99269.03
2022-09-15T20:53:57.608Z,99285.31
2022-09-15T20:56:26.614Z,99288.25
2022-09-15T20:58:54.998Z,99291.94
2022-09-15T21:01:24.057Z,99289.81
2022-09-15T21:03:51.135Z,99291.41
2022-09-15T21:06:20.443Z,99278.25
2022-09-15T21:08:48.527Z,99273.53
2022-09-15T21:11:16.502Z,99266.44
2022-09-15T21:13:44.205Z,99281.16
2022-09-15T21:16:15.128Z,99286.63
2022-09-15T21:18:43.788Z,99292.72
2022-09-15T21:21:25.203Z,99295.56
2022-09-15T21:23:53.904Z,99289.59
2022-09-15T21:26:23.296Z,99286.41
2022-09-15T21:28:50.307Z,99288.25
2022-09-15T21:31:22.141Z,99291.94
2022-09-15T21:33:50.068Z,99288.81
2022-09-15T21:36:31.282Z,99287.00
2022-09-15T21:38:59.243Z,99284.34
2022-09-15T21:41:29.733Z,99290.34
2022-09-15T21:43:58.373Z,99294.84
2022-09-15T21:46:27.810Z,99302.72
2022-09-15T21:48:56.121Z,99300.91
2022-09-15T21:51:24.851Z,99300.66
2022-09-15T21:53:53.314Z,99307.53
2022-09-15T21:56:20.155Z,99310.62
2022-09-15T21:58:46.766Z,99318.81
2022-09-15T22:01:14.570Z,99330.66
2022-09-15T22:03:42.423Z,99334.06
2022-09-15T22:06:13.161Z,99339.34
2022-09-15T22:08:40.398Z,99352.72
2022-09-15T22:11:08.337Z,99360.09
2022-09-15T22:13:40.909Z,99348.50
2022-09-15T22:16:11.546Z,99355.34
2022-09-15T22:18:39.940Z,99354.84
2022-09-15T22:21:20.191Z,99356.94
2022-09-15T22:23:47.910Z,99354.09
2022-09-15T22:26:17.486Z,99357.25
2022-09-15T22:28:44.145Z,99355.66
2022-09-15T22:31:15.464Z,99356.19
2022-09-15T22:33:42.462Z,99357.28
2022-09-15T22:36:11.177Z,99360.19
2022-09-15T22:38:38.269Z,99366.75
2022-09-15T22:41:07.359Z,99374.38
2022-09-15T22:43:33.970Z,99374.13
2022-09-15T22:46:00.882Z,99380.19
2022-09-15T22:48:28.258Z,99379.12
2022-09-15T22:50:54.925Z,99382.81
2022-09-15T22:53:23.396Z,99394.09
2022-09-15T22:55:50.688Z,99406.72
2022-09-15T22:58:17.502Z,99400.66
2022-09-15T23:00:44.089Z,99410.62
2022-09-15T23:03:11.691Z,99410.38
2022-09-15T23:05:38.286Z,99410.62
2022-09-15T23:08:04.942Z,99412.72
2022-09-15T23:10:32.310Z,99418.25
2022-09-15T23:12:59.355Z,99431.13
2022-09-15T23:15:26.038Z,99442.38
2022-09-15T23:17:52.621Z,99447.16
2022-09-15T23:20:19.161Z,99447.16
2022-09-15T23:22:45.702Z,99439.25
2022-09-15T23:25:12.243Z,99448.66
2022-09-15T23:27:38.771Z,99440.78
2022-09-15T23:30:05.714Z,99451.06
2022-09-15T23:32:32.325Z,99442.09
2022-09-15T23:34:58.919Z,99435.53
2022-09-15T23:37:25.491Z,99445.56
2022-09-15T23:39:52.279Z,99435.03
2022-09-15T23:42:19.191Z,99429.78
2022-09-15T23:44:45.924Z,99428.97
2022-09-15T23:47:12.468Z,99435.31
2022-09-15T23:49:39.011Z,99430.59
2022-09-15T23:52:05.611Z,99437.72
2022-09-15T23:54:32.155Z,99438.00
2022-09-15T23:56:58.805Z,99441.41
2022-09-15T23:59:25.403Z,99441.69
